Time;durP1;ratioP1;P1;durP2;ratioP2;P2;SDS_P1;SDS_P2;PMS_P1;PMS_P2;Temp;Humidity;BMP_temperature;BMP_pressure;BME280_temperature;BME280_humidity;BME280_pressure;Samples;Min_cycle;Max_cycle;Signal;HPM_P1;HPM_P2
2022/07/27 00:01:27;;;;;;;3.63;2.47;;;20.20;99.50;;;;;;4991806;28;20669;-62
2022/07/27 00:03:52;;;;;;;2.77;2.57;;;20.30;99.50;;;;;;4991354;28;20242;-63
2022/07/27 00:06:18;;;;;;;3.57;2.90;;;20.30;99.90;;;;;;4991965;28;20200;-62
2022/07/27 00:08:43;;;;;;;2.70;2.50;;;20.30;99.50;;;;;;4991240;28;20665;-63
2022/07/27 00:11:09;;;;;;;2.90;2.70;;;20.30;99.90;;;;;;4989949;28;21109;-63
2022/07/27 00:13:35;;;;;;;2.67;2.47;;;20.20;99.90;;;;;;4990321;28;20273;-63
2022/07/27 00:16:01;;;;;;;3.20;3.00;;;20.20;99.90;;;;;;4995246;28;20211;-63
2022/07/27 00:18:26;;;;;;;3.00;2.77;;;20.20;99.90;;;;;;4973074;28;20206;-62
2022/07/27 00:20:52;;;;;;;5.23;2.73;;;20.20;99.90;;;;;;4991652;28;20612;-62
2022/07/27 00:23:17;;;;;;;2.63;2.50;;;20.20;99.90;;;;;;4990636;28;20187;-63
2022/07/27 00:25:43;;;;;;;3.33;3.00;;;20.20;99.90;;;;;;4992452;28;20176;-63
2022/07/27 00:28:08;;;;;;;3.30;3.10;;;20.20;99.90;;;;;;4992685;28;20207;-62
2022/07/27 00:30:34;;;;;;;4.80;2.80;;;20.20;99.90;;;;;;4991850;28;21511;-62
2022/07/27 00:32:59;;;;;;;4.20;3.53;;;20.20;99.90;;;;;;4991268;28;20213;-62
2022/07/27 00:35:25;;;;;;;3.17;2.70;;;20.20;99.90;;;;;;4990871;28;20203;-62
2022/07/27 00:37:50;;;;;;;4.00;3.17;;;20.10;99.90;;;;;;4990295;28;20188;-62
2022/07/27 00:40:16;;;;;;;3.13;2.70;;;20.10;99.90;;;;;;4991211;28;20548;-62
2022/07/27 00:42:41;;;;;;;3.47;3.17;;;20.10;99.90;;;;;;4996202;28;20175;-62
2022/07/27 00:45:07;;;;;;;3.40;3.20;;;20.10;99.90;;;;;;4990523;28;20642;-63
2022/07/27 00:47:33;;;;;;;4.00;2.80;;;20.20;99.90;;;;;;4990241;28;20190;-63
2022/07/27 00:49:59;;;;;;;3.80;3.37;;;20.30;99.90;;;;;;4990849;28;20294;-62
2022/07/27 00:52:27;;;;;;;5.13;3.07;;;20.40;99.90;;;;;;4995410;28;20175;-63
2022/07/27 00:54:53;;;;;;;3.70;3.40;;;20.40;99.90;;;;;;4992093;28;20502;-62
2022/07/27 00:57:19;;;;;;;4.17;2.67;;;20.30;99.90;;;;;;4991541;28;20470;-63
2022/07/27 00:59:44;;;;;;;3.90;3.20;;;20.20;99.90;;;;;;4973682;28;20175;-62
2022/07/27 01:02:10;;;;;;;3.50;3.20;;;20.00;99.90;;;;;;4991023;28;20168;-62
2022/07/27 01:04:35;;;;;;;3.40;3.20;;;20.00;99.90;;;;;;4988900;28;20218;-63
2022/07/27 01:07:06;;;;;;;3.43;3.23;;;20.00;99.90;;;;;;4990507;28;20641;-62
2022/07/27 01:12:22;;;;;;;5.63;3.50;;;20.00;99.90;;;;;;4991780;28;20550;-63
2022/07/27 01:14:48;;;;;;;7.20;3.60;;;20.00;99.90;;;;;;4990971;28;20470;-63
2022/07/27 01:17:15;;;;;;;4.33;4.03;;;20.00;99.90;;;;;;4991046;28;20792;-63
2022/07/27 01:19:40;;;;;;;3.70;3.40;;;20.00;99.90;;;;;;4989431;28;20848;-63
2022/07/27 01:22:06;;;;;;;4.40;3.40;;;19.90;99.90;;;;;;4991069;28;20488;-63
2022/07/27 01:24:33;;;;;;;3.60;3.30;;;19.60;99.90;;;;;;4972064;28;20554;-63
2022/07/27 01:27:02;;;;;;;4.00;3.70;;;19.60;99.90;;;;;;4990131;28;20653;-63
2022/07/27 01:29:29;;;;;;;4.40;3.70;;;19.50;99.90;;;;;;4988648;28;20454;-62
2022/07/27 01:31:55;;;;;;;4.93;3.60;;;19.40;99.90;;;;;;4988532;28;20465;-62
2022/07/27 01:34:21;;;;;;;4.33;3.93;;;19.40;99.90;;;;;;4991936;28;20441;-62
2022/07/27 01:36:46;;;;;;;5.83;3.97;;;19.50;99.90;;;;;;4988541;28;20238;-62
2022/07/27 01:39:13;;;;;;;4.20;3.90;;;19.50;99.90;;;;;;4990596;28;20441;-62
2022/07/27 01:41:38;;;;;;;3.90;3.60;;;19.50;99.90;;;;;;4995294;28;20293;-62
2022/07/27 01:44:04;;;;;;;3.70;3.40;;;19.50;99.90;;;;;;4989321;28;20514;-62
2022/07/27 01:46:30;;;;;;;4.20;4.00;;;19.50;99.90;;;;;;4990750;28;20179;-62
2022/07/27 01:48:56;;;;;;;4.00;3.70;;;19.50;99.90;;;;;;4987277;28;20443;-62
2022/07/27 01:51:21;;;;;;;4.37;4.07;;;19.30;99.90;;;;;;4998772;28;20203;-62
2022/07/27 01:53:47;;;;;;;5.00;4.60;;;19.30;99.90;;;;;;4998107;28;20544;-62
2022/07/27 01:56:13;;;;;;;4.80;4.40;;;19.30;99.90;;;;;;4994849;28;20192;-63
2022/07/27 01:58:41;;;;;;;3.80;3.60;;;19.20;99.90;;;;;;4994392;28;20191;-62
2022/07/27 02:01:07;;;;;;;4.27;3.87;;;19.20;99.90;;;;;;4993953;28;20462;-63
2022/07/27 02:03:33;;;;;;;7.30;4.57;;;19.00;99.90;;;;;;4994152;28;20854;-62
2022/07/27 02:05:59;;;;;;;4.13;3.90;;;18.90;99.90;;;;;;4994970;28;20202;-63
2022/07/27 02:08:25;;;;;;;4.70;4.27;;;19.00;99.90;;;;;;4991880;28;20985;-63
2022/07/27 02:13:35;;;;;;;5.97;4.47;;;19.00;99.90;;;;;;4993583;28;20254;-63
2022/07/27 02:16:00;;;;;;;6.73;4.03;;;19.10;99.90;;;;;;4993308;28;20466;-62
2022/07/27 02:18:26;;;;;;;4.63;3.80;;;19.10;99.90;;;;;;4994814;28;20561;-62
2022/07/27 02:20:52;;;;;;;4.80;4.40;;;19.00;99.90;;;;;;4993891;28;20200;-62
2022/07/27 02:23:17;;;;;;;5.13;4.83;;;18.90;99.90;;;;;;4992535;28;20330;-62
2022/07/27 02:25:43;;;;;;;5.40;4.20;;;18.90;99.90;;;;;;4997830;28;20196;-63
2022/07/27 02:28:09;;;;;;;5.10;4.70;;;19.00;99.90;;;;;;4994546;28;20545;-62
2022/07/27 02:30:35;;;;;;;4.13;3.83;;;19.00;99.90;;;;;;4992332;28;20552;-62
2022/07/27 02:33:00;;;;;;;7.00;4.60;;;18.90;99.90;;;;;;4992491;28;20258;-63
2022/07/27 02:35:26;;;;;;;4.83;4.43;;;18.90;99.90;;;;;;4992828;28;20234;-62
2022/07/27 02:37:51;;;;;;;4.20;4.00;;;18.80;99.90;;;;;;4992715;28;20184;-63
2022/07/27 02:40:17;;;;;;;4.70;4.40;;;18.80;99.90;;;;;;4993116;28;20196;-63
2022/07/27 02:42:46;;;;;;;4.77;4.37;;;18.60;99.90;;;;;;4993251;28;20202;-62
2022/07/27 02:45:15;;;;;;;4.30;3.90;;;18.70;99.90;;;;;;4992254;28;20187;-63
2022/07/27 02:47:41;;;;;;;5.07;4.57;;;18.70;99.90;;;;;;4991316;28;20458;-62
2022/07/27 02:50:08;;;;;;;5.10;4.50;;;18.80;99.90;;;;;;4991153;28;20462;-62
2022/07/27 02:52:35;;;;;;;5.27;4.40;;;18.90;99.90;;;;;;4993021;28;20447;-63
2022/07/27 02:55:01;;;;;;;7.07;5.23;;;19.00;99.90;;;;;;4992562;28;20833;-62
2022/07/27 02:57:26;;;;;;;12.07;4.53;;;19.00;99.90;;;;;;4993405;28;20492;-63
2022/07/27 02:59:52;;;;;;;4.73;4.17;;;19.10;99.90;;;;;;4991301;28;20227;-62
2022/07/27 03:02:17;;;;;;;5.50;5.00;;;19.00;99.90;;;;;;4992051;28;20391;-62
2022/07/27 03:04:43;;;;;;;4.30;4.00;;;19.00;99.90;;;;;;4991656;28;20180;-63
2022/07/27 03:07:08;;;;;;;4.83;4.43;;;19.00;99.90;;;;;;4990545;28;20661;-63
2022/07/27 03:09:34;;;;;;;6.40;5.23;;;18.80;99.90;;;;;;4992247;28;20188;-62
2022/07/27 03:12:01;;;;;;;5.13;4.73;;;18.70;99.90;;;;;;4994299;28;20220;-62
2022/07/27 03:14:27;;;;;;;5.17;4.87;;;18.60;99.90;;;;;;4992669;28;20457;-62
2022/07/27 03:16:53;;;;;;;5.13;4.73;;;18.70;99.90;;;;;;4993721;28;20434;-63
2022/07/27 03:19:18;;;;;;;6.43;5.30;;;18.80;99.90;;;;;;4991802;28;20191;-63
2022/07/27 03:21:44;;;;;;;5.37;4.87;;;18.80;99.90;;;;;;4991877;28;20707;-62
2022/07/27 03:24:10;;;;;;;4.97;4.53;;;18.70;99.90;;;;;;4993756;28;20258;-63
2022/07/27 03:26:35;;;;;;;6.00;5.00;;;18.70;99.90;;;;;;4991301;28;20187;-62
2022/07/27 03:29:01;;;;;;;5.80;5.30;;;18.60;99.90;;;;;;4991069;28;20187;-63
2022/07/27 03:31:26;;;;;;;8.70;6.50;;;18.60;99.90;;;;;;5022779;23;20628;-67
2022/07/27 03:33:52;;;;;;;5.40;4.90;;;18.60;99.90;;;;;;4999356;28;20263;-66
2022/07/27 03:36:17;;;;;;;6.30;5.70;;;18.40;99.90;;;;;;5010528;28;20199;-66
2022/07/27 03:38:43;;;;;;;5.67;5.17;;;18.40;99.90;;;;;;5002656;28;20178;-66
2022/07/27 03:41:08;;;;;;;5.70;5.40;;;18.40;99.90;;;;;;5007399;28;20550;-68
2022/07/27 03:43:34;;;;;;;5.60;5.00;;;18.30;99.90;;;;;;4994729;28;20559;-66
2022/07/27 03:46:00;;;;;;;8.90;5.47;;;18.20;99.90;;;;;;5000809;28;20553;-66
2022/07/27 03:48:26;;;;;;;6.90;6.40;;;18.10;99.90;;;;;;5003005;28;20172;-67
2022/07/27 03:50:52;;;;;;;6.60;6.10;;;18.00;99.90;;;;;;4999535;28;20585;-66
2022/07/27 03:53:20;;;;;;;6.40;5.27;;;18.00;99.90;;;;;;5009130;28;20767;-66
2022/07/27 03:55:46;;;;;;;5.90;5.30;;;18.00;99.90;;;;;;5003326;28;20493;-66
2022/07/27 03:58:11;;;;;;;6.70;6.07;;;17.90;99.90;;;;;;5005702;28;20446;-66
2022/07/27 04:00:37;;;;;;;7.53;5.63;;;17.90;99.90;;;;;;5006371;28;20457;-66
2022/07/27 04:03:03;;;;;;;8.07;5.90;;;17.90;99.90;;;;;;5008298;28;20229;-66
2022/07/27 04:05:28;;;;;;;6.47;5.70;;;17.80;99.90;;;;;;5008986;28;20550;-66
2022/07/27 04:07:54;;;;;;;6.23;5.83;;;17.80;99.90;;;;;;5003552;28;20179;-65
2022/07/27 04:10:19;;;;;;;5.63;5.23;;;17.80;99.90;;;;;;5007098;28;20800;-66
2022/07/27 04:12:45;;;;;;;5.93;5.33;;;17.80;99.90;;;;;;5003081;28;20186;-65
2022/07/27 04:15:10;;;;;;;6.70;6.17;;;17.80;99.90;;;;;;5010413;28;20202;-66
2022/07/27 04:17:36;;;;;;;5.70;5.20;;;17.70;99.90;;;;;;5006579;28;20265;-66
2022/07/27 04:20:03;;;;;;;8.83;6.70;;;17.70;99.90;;;;;;5005855;28;20190;-66
2022/07/27 04:22:28;;;;;;;7.90;5.93;;;17.80;99.90;;;;;;4993937;28;20190;-68
2022/07/27 04:24:54;;;;;;;7.53;7.03;;;18.00;99.90;;;;;;5002227;28;20439;-65
2022/07/27 04:27:20;;;;;;;7.00;6.40;;;18.20;99.90;;;;;;4972992;28;20675;-66
2022/07/27 04:29:45;;;;;;;5.70;5.27;;;18.20;99.90;;;;;;4991126;28;20514;-66
2022/07/27 04:32:11;;;;;;;6.93;6.23;;;18.30;99.90;;;;;;4987858;28;20223;-66
2022/07/27 04:34:36;;;;;;;10.53;5.77;;;18.50;99.90;;;;;;5006053;28;20207;-66
2022/07/27 04:37:02;;;;;;;7.00;6.30;;;18.50;99.90;;;;;;5010347;28;20217;-66
2022/07/27 04:39:28;;;;;;;6.40;5.90;;;18.50;99.90;;;;;;5002278;28;20271;-68
2022/07/27 04:41:53;;;;;;;7.47;6.73;;;18.40;99.90;;;;;;5006301;28;20211;-68
2022/07/27 04:44:19;;;;;;;6.33;5.73;;;18.40;99.90;;;;;;5003709;28;20179;-66
2022/07/27 04:46:44;;;;;;;6.93;5.90;;;18.40;99.90;;;;;;4998094;28;20645;-68
2022/07/27 04:49:10;;;;;;;8.43;7.83;;;18.40;99.90;;;;;;4990700;28;20215;-67
2022/07/27 04:51:35;;;;;;;6.63;5.53;;;18.60;99.90;;;;;;4989335;28;20731;-69
2022/07/27 04:54:01;;;;;;;6.93;6.20;;;18.60;99.90;;;;;;4990358;28;20183;-69
2022/07/27 04:56:27;;;;;;;5.80;5.40;;;18.70;99.90;;;;;;4982551;28;20238;-68
2022/07/27 04:58:53;;;;;;;5.87;5.47;;;18.70;99.90;;;;;;4990269;28;20462;-66
2022/07/27 05:01:19;;;;;;;6.00;5.50;;;18.70;99.90;;;;;;4978662;28;20294;-65
2022/07/27 05:03:44;;;;;;;9.30;5.73;;;18.70;99.90;;;;;;4991665;28;21043;-67
2022/07/27 05:06:10;;;;;;;6.00;5.60;;;18.70;99.90;;;;;;4990606;28;20180;-67
2022/07/27 05:08:36;;;;;;;7.10;6.50;;;18.80;99.90;;;;;;4988755;28;20258;-70
2022/07/27 05:11:01;;;;;;;7.00;6.00;;;18.80;99.90;;;;;;4995947;28;20207;-65
2022/07/27 05:13:27;;;;;;;7.30;6.60;;;18.80;99.90;;;;;;4990607;28;20183;-67
2022/07/27 05:15:52;;;;;;;6.13;5.63;;;18.90;99.90;;;;;;4992406;28;20195;-66
2022/07/27 05:18:18;;;;;;;6.90;6.40;;;19.00;99.90;;;;;;4990085;28;20241;-67
2022/07/27 05:20:43;;;;;;;6.70;6.07;;;19.00;99.90;;;;;;4988708;28;20235;-68
2022/07/27 05:23:09;;;;;;;6.90;5.87;;;19.00;99.90;;;;;;4990529;28;20316;-66
2022/07/27 05:25:35;;;;;;;5.90;5.50;;;19.00;99.90;;;;;;4993577;28;20544;-66
2022/07/27 05:28:01;;;;;;;5.93;5.53;;;18.90;99.90;;;;;;4993188;28;20465;-66
2022/07/27 05:30:27;;;;;;;6.67;6.00;;;19.10;99.90;;;;;;4990693;28;20437;-66
2022/07/27 05:32:52;;;;;;;6.63;6.07;;;19.10;99.90;;;;;;4992872;28;20525;-66
2022/07/27 05:35:19;;;;;;;6.73;6.13;;;19.10;99.90;;;;;;5004846;28;20202;-66
2022/07/27 05:37:45;;;;;;;6.97;6.40;;;19.20;99.90;;;;;;5007540;28;20183;-66
2022/07/27 05:40:11;;;;;;;6.97;6.50;;;19.30;99.90;;;;;;4990801;28;20434;-67
2022/07/27 05:42:37;;;;;;;6.10;5.60;;;19.40;99.90;;;;;;4993055;28;20538;-68
2022/07/27 05:45:03;;;;;;;7.07;6.40;;;19.40;99.90;;;;;;4997411;28;21097;-66
2022/07/27 05:47:28;;;;;;;7.57;6.33;;;19.40;99.90;;;;;;5009806;28;20593;-67
2022/07/27 05:49:54;;;;;;;6.10;5.60;;;19.40;99.90;;;;;;5012263;28;20448;-69
2022/07/27 05:52:19;;;;;;;6.10;5.53;;;19.30;99.90;;;;;;5011428;28;20210;-66
2022/07/27 05:54:46;;;;;;;6.53;5.80;;;19.50;99.90;;;;;;4988745;28;20175;-65
2022/07/27 05:57:14;;;;;;;6.50;6.03;;;19.60;99.90;;;;;;5002259;28;20199;-66
2022/07/27 05:59:39;;;;;;;5.73;5.20;;;19.80;99.90;;;;;;4991813;28;20441;-65
2022/07/27 06:02:05;;;;;;;5.50;5.20;;;19.80;99.90;;;;;;4994367;28;20450;-66
2022/07/27 06:04:31;;;;;;;6.90;6.30;;;19.70;99.90;;;;;;4994462;28;20267;-69
2022/07/27 06:09:40;;;;;;;6.53;6.10;;;20.00;99.90;;;;;;4992415;28;20724;-66
2022/07/27 06:12:06;;;;;;;7.00;6.30;;;20.10;99.90;;;;;;4993155;28;20549;-70
2022/07/27 06:14:31;;;;;;;6.37;5.90;;;20.20;99.90;;;;;;4993196;28;20187;-68
2022/07/27 06:16:57;;;;;;;5.83;5.33;;;20.00;99.90;;;;;;5003199;28;20691;-67
2022/07/27 06:19:23;;;;;;;6.57;6.03;;;20.00;99.90;;;;;;5005286;28;20171;-68
2022/07/27 06:21:49;;;;;;;6.23;5.70;;;20.00;99.90;;;;;;5000507;28;20531;-67
2022/07/27 06:24:16;;;;;;;6.07;5.57;;;20.10;99.90;;;;;;5003715;28;20225;-66
2022/07/27 06:26:42;;;;;;;6.73;6.20;;;20.20;99.90;;;;;;4966421;28;20442;-66
2022/07/27 06:29:08;;;;;;;6.53;6.13;;;20.60;99.90;;;;;;4977421;28;20982;-64
2022/07/27 06:31:33;;;;;;;6.43;5.90;;;20.90;99.90;;;;;;4989124;28;20510;-67
2022/07/27 06:33:59;;;;;;;8.67;6.03;;;20.90;99.90;;;;;;4989579;28;20695;-65
2022/07/27 06:36:24;;;;;;;7.93;6.10;;;21.10;99.90;;;;;;4966113;28;20214;-67
2022/07/27 06:38:50;;;;;;;6.33;5.83;;;21.50;99.90;;;;;;4991497;28;20194;-68
2022/07/27 06:41:16;;;;;;;5.80;5.40;;;21.70;99.90;;;;;;4993482;28;20192;-66
2022/07/27 06:43:41;;;;;;;7.10;6.40;;;21.80;99.90;;;;;;4997885;28;20179;-66
2022/07/27 06:46:11;;;;;;;6.80;5.50;;;21.90;99.90;;;;;;4989129;28;20258;-67
2022/07/27 06:48:38;;;;;;;5.93;5.30;;;22.10;99.90;;;;;;4997744;28;20234;-68
2022/07/27 06:51:03;;;;;;;9.07;6.70;;;22.40;99.90;;;;;;4993894;28;20434;-66
2022/07/27 06:53:29;;;;;;;6.40;5.90;;;22.40;99.90;;;;;;4983402;28;20530;-67
2022/07/27 06:55:57;;;;;;;5.40;4.87;;;22.70;99.90;;;;;;4985850;28;20429;-66
2022/07/27 06:58:22;;;;;;;6.37;5.97;;;22.80;99.90;;;;;;5001823;28;20183;-65
2022/07/27 07:00:48;;;;;;;5.33;4.93;;;23.00;99.90;;;;;;4988679;28;20991;-65
2022/07/27 07:03:13;;;;;;;6.60;6.00;;;22.90;99.90;;;;;;4991326;28;20219;-64
2022/07/27 07:05:44;;;;;;;6.73;6.13;;;22.80;99.90;;;;;;4987529;28;20242;-65
2022/07/27 07:08:11;;;;;;;7.17;6.00;;;22.80;99.90;;;;;;4984611;28;20589;-66
2022/07/27 07:10:41;;;;;;;6.83;6.23;;;22.90;99.90;;;;;;4990566;28;21025;-65
2022/07/27 07:13:08;;;;;;;6.03;5.40;;;23.10;99.90;;;;;;4990434;28;20438;-65
2022/07/27 07:15:34;;;;;;;5.97;5.50;;;23.20;99.90;;;;;;4985052;28;20557;-65
2022/07/27 07:18:02;;;;;;;5.53;5.10;;;23.30;99.90;;;;;;4990740;28;20442;-66
2022/07/27 07:20:29;;;;;;;10.07;5.87;;;23.50;99.90;;;;;;4985953;28;20557;-66
2022/07/27 07:22:54;;;;;;;5.87;5.47;;;23.60;99.90;;;;;;4988144;28;20806;-66
2022/07/27 07:25:20;;;;;;;5.40;4.93;;;23.60;99.90;;;;;;4986476;28;20461;-66
2022/07/27 07:27:45;;;;;;;6.17;5.67;;;23.30;99.90;;;;;;4990224;28;20547;-65
2022/07/27 07:30:11;;;;;;;6.23;5.83;;;23.50;99.90;;;;;;4988523;28;20581;-65
2022/07/27 07:32:37;;;;;;;9.03;5.53;;;23.70;99.90;;;;;;4988755;28;20267;-66
2022/07/27 07:35:03;;;;;;;5.33;4.93;;;23.80;99.90;;;;;;4988917;28;20480;-66
2022/07/27 07:37:29;;;;;;;14.73;13.23;;;23.80;99.90;;;;;;4982992;28;20176;-65
2022/07/27 07:39:55;;;;;;;6.53;5.93;;;24.10;99.90;;;;;;4978225;28;20439;-65
2022/07/27 07:42:21;;;;;;;6.60;6.17;;;24.40;99.20;;;;;;4972622;28;20485;-65
2022/07/27 07:44:46;;;;;;;5.90;5.50;;;24.50;98.90;;;;;;4986806;28;20442;-66
2022/07/27 07:47:12;;;;;;;6.00;5.40;;;24.20;98.30;;;;;;4988331;28;20180;-66
2022/07/27 07:49:37;;;;;;;7.07;5.33;;;24.50;98.20;;;;;;4989833;28;20234;-66
2022/07/27 07:52:03;;;;;;;7.20;6.60;;;24.70;98.20;;;;;;4985210;28;20233;-66
2022/07/27 07:54:29;;;;;;;6.23;5.57;;;24.70;98.20;;;;;;4987033;28;20601;-66
2022/07/27 07:56:54;;;;;;;5.30;4.90;;;24.60;97.80;;;;;;4983162;28;20207;-67
2022/07/27 07:59:20;;;;;;;5.63;5.13;;;24.70;97.60;;;;;;4988102;28;20637;-65
2022/07/27 08:01:45;;;;;;;4.50;4.20;;;24.50;98.20;;;;;;4988177;28;20199;-66
2022/07/27 08:04:11;;;;;;;5.70;5.30;;;24.60;97.80;;;;;;4988223;28;20179;-66
2022/07/27 08:06:38;;;;;;;5.83;5.10;;;24.50;97.50;;;;;;4984545;28;20180;-66
2022/07/27 08:09:04;;;;;;;5.57;5.10;;;24.30;98.00;;;;;;4991071;28;20214;-66
2022/07/27 08:11:30;;;;;;;5.40;4.90;;;24.30;97.60;;;;;;4989501;28;20870;-66
2022/07/27 08:13:55;;;;;;;4.70;4.30;;;24.30;97.80;;;;;;4993617;28;20509;-65
2022/07/27 08:16:21;;;;;;;7.03;4.73;;;24.50;97.60;;;;;;4986604;28;20298;-65
2022/07/27 08:18:46;;;;;;;5.00;4.70;;;25.00;96.90;;;;;;4982728;28;20179;-65
2022/07/27 08:21:12;;;;;;;5.37;4.90;;;25.20;96.30;;;;;;4991857;28;20204;-66
2022/07/27 08:23:38;;;;;;;6.20;5.70;;;25.40;95.60;;;;;;4988465;28;20792;-67
2022/07/27 08:26:03;;;;;;;5.80;5.40;;;25.30;95.00;;;;;;4987781;28;20266;-67
2022/07/27 08:28:29;;;;;;;6.50;6.00;;;25.10;95.50;;;;;;4987819;28;20616;-65
2022/07/27 08:30:54;;;;;;;5.80;5.30;;;25.40;95.50;;;;;;4988596;28;20238;-66
2022/07/27 08:33:20;;;;;;;5.87;4.90;;;25.40;95.40;;;;;;4989947;28;20199;-66
2022/07/27 08:35:45;;;;;;;5.40;4.90;;;25.70;94.60;;;;;;4987382;28;20206;-65
2022/07/27 08:38:11;;;;;;;8.53;4.83;;;26.30;94.00;;;;;;4987354;28;20176;-66
2022/07/27 08:40:38;;;;;;;6.57;5.20;;;26.60;93.20;;;;;;4987805;28;20191;-66
2022/07/27 08:43:05;;;;;;;5.73;5.33;;;26.90;92.20;;;;;;4982301;28;20186;-66
2022/07/27 08:45:31;;;;;;;5.20;4.50;;;26.90;91.90;;;;;;4984963;28;20888;-66
2022/07/27 08:47:56;;;;;;;5.73;5.33;;;26.60;91.90;;;;;;4988348;28;20533;-66
2022/07/27 08:50:23;;;;;;;6.83;5.20;;;26.40;91.60;;;;;;4984300;28;20476;-66
2022/07/27 08:53:04;;;;;;;7.90;5.07;;;26.90;91.60;;;;;;4985880;28;20187;-65
2022/07/27 08:55:32;;;;;;;5.47;5.00;;;27.30;91.00;;;;;;4982053;28;20477;-66
2022/07/27 08:57:58;;;;;;;5.43;4.57;;;27.30;90.10;;;;;;4994184;28;21052;-65
2022/07/27 09:00:24;;;;;;;4.97;4.53;;;27.10;90.40;;;;;;4983841;28;20582;-67
2022/07/27 09:02:50;;;;;;;6.13;5.70;;;27.40;90.30;;;;;;4989263;28;20470;-66
2022/07/27 09:05:15;;;;;;;5.00;4.70;;;27.70;88.80;;;;;;4978043;28;20548;-67
2022/07/27 09:07:41;;;;;;;4.70;4.40;;;28.20;88.20;;;;;;4989169;28;20207;-65
2022/07/27 09:10:07;;;;;;;8.07;5.57;;;28.40;85.10;;;;;;4993573;28;20210;-66
2022/07/27 09:12:33;;;;;;;5.90;5.40;;;28.80;84.40;;;;;;4988495;28;20214;-66
2022/07/27 09:15:13;;;;;;;6.03;5.53;;;28.80;83.60;;;;;;4991844;28;20474;-67
2022/07/27 09:17:41;;;;;;;6.00;5.20;;;28.70;82.60;;;;;;4985934;28;20438;-66
2022/07/27 09:20:15;;;;;;;7.30;5.90;;;28.40;83.20;;;;;;4975120;28;20434;-67
2022/07/27 09:22:49;;;;;;;6.30;5.90;;;28.60;83.80;;;;;;4990263;28;20437;-66
2022/07/27 09:25:18;;;;;;;6.23;5.17;;;28.50;82.00;;;;;;4983742;28;20442;-66
2022/07/27 09:27:44;;;;;;;5.63;5.33;;;28.70;82.80;;;;;;4985381;28;20470;-67
2022/07/27 09:30:14;;;;;;;6.20;5.70;;;28.50;82.20;;;;;;4987640;28;20443;-67
2022/07/27 09:32:50;;;;;;;5.80;5.30;;;28.70;81.50;;;;;;5002288;23;20589;-62
2022/07/27 09:35:20;;;;;;;5.70;5.20;;;29.30;80.00;;;;;;4985629;28;20561;-62
2022/07/27 09:37:45;;;;;;;5.80;5.40;;;29.40;79.60;;;;;;4986737;28;20435;-62
2022/07/27 09:40:17;;;;;;;5.60;5.10;;;29.30;79.70;;;;;;4994445;28;20438;-62
2022/07/27 09:42:43;;;;;;;5.33;4.93;;;29.00;79.50;;;;;;4986856;28;20290;-62
2022/07/27 09:45:29;;;;;;;5.83;5.40;;;28.80;80.10;;;;;;4968274;28;20538;-64
2022/07/27 09:48:08;;;;;;;6.23;5.83;;;28.60;79.90;;;;;;4989089;28;20215;-64
2022/07/27 09:50:36;;;;;;;5.87;5.37;;;28.50;80.20;;;;;;4982552;28;21018;-63
2022/07/27 09:53:20;;;;;;;11.27;6.80;;;28.40;81.30;;;;;;4988695;28;20435;-62
2022/07/27 09:55:57;;;;;;;5.67;5.33;;;28.80;81.00;;;;;;4967703;28;20501;-64
2022/07/27 09:58:36;;;;;;;5.50;5.00;;;29.30;79.50;;;;;;4983528;28;20442;-63
2022/07/27 10:01:02;;;;;;;6.07;5.57;;;30.10;77.10;;;;;;4991379;28;20452;-62
2022/07/27 10:03:28;;;;;;;5.43;5.03;;;29.70;76.80;;;;;;4981001;28;20439;-63
2022/07/27 10:05:54;;;;;;;5.30;4.83;;;29.50;77.30;;;;;;4989730;28;20214;-63
2022/07/27 10:08:19;;;;;;;5.00;4.50;;;29.30;76.90;;;;;;4994547;28;20245;-63
2022/07/27 10:10:45;;;;;;;5.13;4.77;;;30.30;75.50;;;;;;4986671;28;20215;-63
2022/07/27 10:13:11;;;;;;;5.23;4.83;;;30.60;73.20;;;;;;4992118;28;20183;-64
2022/07/27 10:15:40;;;;;;;6.77;5.43;;;30.40;73.30;;;;;;4990514;28;20874;-64
2022/07/27 10:18:16;;;;;;;5.70;5.20;;;31.00;71.60;;;;;;4990274;28;20255;-64
2022/07/27 10:20:44;;;;;;;5.70;5.23;;;32.40;66.30;;;;;;4992249;28;20512;-63
2022/07/27 10:23:27;;;;;;;5.30;5.00;;;33.20;63.40;;;;;;4991342;28;20435;-64
2022/07/27 10:26:19;;;;;;;7.93;5.43;;;33.70;61.70;;;;;;4986252;28;20434;-64
2022/07/27 10:29:05;;;;;;;4.80;4.50;;;34.00;59.50;;;;;;4987913;28;20439;-63
2022/07/27 10:31:36;;;;;;;5.77;5.23;;;34.60;58.60;;;;;;4996556;28;20560;-64
2022/07/27 10:34:04;;;;;;;4.80;4.50;;;35.70;55.70;;;;;;4991964;28;20461;-61
2022/07/27 10:36:30;;;;;;;4.20;3.87;;;35.90;55.20;;;;;;4989068;28;21052;-62
2022/07/27 10:38:58;;;;;;;4.37;3.97;;;36.10;54.60;;;;;;4986740;28;20471;-63
2022/07/27 10:41:28;;;;;;;5.10;4.60;;;34.90;53.70;;;;;;4992792;28;20195;-63
2022/07/27 10:44:20;;;;;;;8.70;8.10;;;33.20;55.60;;;;;;4996476;28;20467;-62
2022/07/27 10:47:00;;;;;;;39.67;35.83;;;32.70;56.10;;;;;;4980524;28;20447;-70
2022/07/27 10:49:31;;;;;;;36.73;33.60;;;32.30;56.40;;;;;;4990059;28;20441;-71
2022/07/27 10:51:59;;;;;;;14.33;13.10;;;32.80;56.10;;;;;;4997980;28;20457;-71
2022/07/27 10:54:33;;;;;;;12.07;11.20;;;33.40;55.40;;;;;;4999678;28;20568;-73
2022/07/27 10:57:01;;;;;;;6.33;5.73;;;34.50;53.90;;;;;;4988139;28;20471;-65
2022/07/27 10:59:38;;;;;;;5.03;4.60;;;35.60;52.10;;;;;;4989744;28;21020;-65
2022/07/27 11:02:06;;;;;;;4.77;4.30;;;36.50;50.50;;;;;;4997535;28;20453;-65
2022/07/27 11:04:33;;;;;;;3.97;3.67;;;36.90;49.40;;;;;;5005493;28;20466;-65
2022/07/27 11:07:00;;;;;;;5.27;4.90;;;36.60;48.30;;;;;;4991595;28;20438;-65
2022/07/27 11:09:40;;;;;;;3.63;3.37;;;35.80;47.60;;;;;;4998488;28;20951;-65
2022/07/27 11:12:09;;;;;;;4.00;3.80;;;36.10;47.80;;;;;;4985231;28;20460;-65
2022/07/27 11:14:52;;;;;;;4.47;4.17;;;36.50;46.60;;;;;;5000894;28;20437;-65
2022/07/27 11:17:20;;;;;;;3.87;3.53;;;35.70;47.30;;;;;;4992935;28;20849;-65
2022/07/27 11:20:00;;;;;;;7.57;6.97;;;35.60;47.30;;;;;;4995939;28;20480;-64
2022/07/27 11:22:38;;;;;;;5.73;4.03;;;35.30;47.00;;;;;;4992032;28;20447;-64
2022/07/27 11:25:04;;;;;;;8.90;8.17;;;34.50;48.20;;;;;;4985702;28;21192;-64
2022/07/27 11:27:30;;;;;;;3.90;3.57;;;33.00;49.70;;;;;;4992073;28;20530;-64
2022/07/27 11:29:56;;;;;;;4.90;4.50;;;32.40;50.80;;;;;;4990853;28;20542;-65
2022/07/27 11:32:22;;;;;;;4.70;4.33;;;31.60;51.50;;;;;;4988929;28;20204;-64
2022/07/27 11:34:48;;;;;;;3.90;3.60;;;31.60;52.50;;;;;;4996186;28;20434;-64
2022/07/27 11:37:22;;;;;;;5.40;4.43;;;33.40;51.40;;;;;;4984437;28;20180;-65
2022/07/27 11:39:56;;;;;;;4.27;3.97;;;36.50;47.30;;;;;;4989479;28;20470;-65
2022/07/27 11:42:22;;;;;;;5.50;3.27;;;39.20;43.00;;;;;;4981349;28;20460;-65
2022/07/27 11:44:48;;;;;;;3.90;3.40;;;42.30;38.90;;;;;;4984256;28;20446;-63
2022/07/27 11:47:18;;;;;;;3.30;3.00;;;42.10;37.20;;;;;;4988042;28;20207;-63
2022/07/27 11:49:44;;;;;;;4.03;3.70;;;40.70;37.40;;;;;;4989700;28;20665;-62
2022/07/27 11:52:10;;;;;;;3.40;3.20;;;38.00;38.60;;;;;;4986699;28;20466;-63
2022/07/27 11:54:40;;;;;;;4.27;3.90;;;36.70;39.30;;;;;;4984965;28;20183;-63
2022/07/27 11:57:15;;;;;;;3.70;3.13;;;36.20;40.40;;;;;;4983897;28;20485;-63
2022/07/27 11:59:42;;;;;;;3.47;3.17;;;34.80;40.50;;;;;;4988093;28;20497;-63
2022/07/27 12:02:14;;;;;;;3.93;3.13;;;34.20;41.80;;;;;;4989234;28;20473;-63
2022/07/27 12:04:41;;;;;;;3.53;3.23;;;33.10;42.90;;;;;;4984757;28;20440;-65
2022/07/27 12:07:18;;;;;;;4.40;4.10;;;32.10;44.00;;;;;;4989841;28;20470;-65
2022/07/27 12:09:47;;;;;;;3.50;3.30;;;31.90;46.10;;;;;;4990819;28;20500;-64
2022/07/27 12:12:15;;;;;;;3.77;3.47;;;31.70;46.30;;;;;;4989349;28;20465;-65
2022/07/27 12:14:47;;;;;;;5.60;3.40;;;31.30;46.90;;;;;;4995938;28;20455;-65
2022/07/27 12:17:24;;;;;;;5.10;4.37;;;31.20;47.20;;;;;;4992051;28;20453;-64
2022/07/27 12:19:56;;;;;;;3.90;3.70;;;30.60;48.00;;;;;;4998567;28;20426;-64
2022/07/27 12:22:24;;;;;;;3.50;3.30;;;30.30;48.00;;;;;;4988381;28;20454;-65
2022/07/27 12:24:49;;;;;;;4.07;3.77;;;31.20;47.80;;;;;;4991213;28;20431;-65
2022/07/27 12:27:15;;;;;;;3.40;3.20;;;31.70;47.30;;;;;;4992889;28;20427;-65
2022/07/27 12:30:14;;;;;;;4.33;3.90;;;32.20;46.70;;;;;;4987978;28;20171;-65
2022/07/27 12:32:44;;;;;;;4.30;3.17;;;32.70;44.80;;;;;;4952582;28;20646;-65
2022/07/27 12:35:29;;;;;;;3.40;3.20;;;32.00;44.60;;;;;;4993825;28;20971;-64
2022/07/27 12:38:08;;;;;;;3.40;3.10;;;32.30;44.50;;;;;;4990858;28;20458;-64
2022/07/27 12:40:42;;;;;;;2.70;2.60;;;33.30;44.00;;;;;;4982923;28;20468;-65
2022/07/27 12:43:08;;;;;;;3.00;2.80;;;34.50;42.30;;;;;;4990106;28;20434;-65
2022/07/27 12:45:36;;;;;;;3.20;3.00;;;35.00;41.60;;;;;;4986390;28;20449;-65
2022/07/27 12:48:14;;;;;;;2.87;2.67;;;36.10;40.90;;;;;;4991138;28;20443;-65
2022/07/27 12:50:42;;;;;;;3.13;2.70;;;37.40;39.10;;;;;;4985762;28;20483;-65
2022/07/27 12:53:08;;;;;;;5.77;3.13;;;38.90;37.60;;;;;;4989049;28;20445;-67
2022/07/27 12:55:34;;;;;;;3.30;2.53;;;40.20;36.10;;;;;;4992690;28;20509;-63